Time;durP1;ratioP1;P1;durP2;ratioP2;P2;SDS_P1;SDS_P2;PMS_P1;PMS_P2;Temp;Humidity;BMP_temperature;BMP_pressure;BME280_temperature;BME280_humidity;BME280_pressure;Samples;Min_cycle;Max_cycle;Signal;HPM_P1;HPM_P2
2022/07/14 00:01:36;;;;;;;0.40;0.40;;;19.80;64.80;;;;;;5015392;28;20410;-72
2022/07/14 00:04:02;;;;;;;0.40;0.40;;;19.70;64.30;;;;;;5015563;28;20515;-71
2022/07/14 00:06:28;;;;;;;0.30;0.30;;;19.60;63.80;;;;;;5015876;28;20781;-71
2022/07/14 00:08:53;;;;;;;0.40;0.40;;;19.70;63.70;;;;;;5015015;28;20431;-72
2022/07/14 00:11:19;;;;;;;0.40;0.40;;;19.60;63.10;;;;;;5015185;28;20624;-71
2022/07/14 00:13:44;;;;;;;0.50;0.50;;;19.60;64.90;;;;;;5015069;28;20168;-72
2022/07/14 00:16:10;;;;;;;0.50;0.40;;;19.60;65.50;;;;;;5013826;28;20204;-71
2022/07/14 00:18:43;;;;;;;0.80;0.63;;;19.60;65.10;;;;;;5014605;28;20677;-70
2022/07/14 00:21:13;;;;;;;0.40;0.40;;;19.60;66.20;;;;;;5015283;28;20247;-71
2022/07/14 00:23:40;;;;;;;0.40;0.40;;;19.60;65.60;;;;;;5014497;28;20405;-72
2022/07/14 00:26:06;;;;;;;0.40;0.40;;;19.60;65.00;;;;;;5012535;28;20430;-71
2022/07/14 00:28:32;;;;;;;0.40;0.40;;;19.50;64.40;;;;;;5014492;28;20788;-71
2022/07/14 00:31:03;;;;;;;1.17;1.07;;;19.50;65.40;;;;;;5014687;28;20593;-71
2022/07/14 00:33:30;;;;;;;0.60;0.57;;;19.60;65.60;;;;;;5014882;28;20414;-71
2022/07/14 00:35:56;;;;;;;0.33;0.33;;;19.50;65.30;;;;;;5014806;28;20454;-70
2022/07/14 00:38:21;;;;;;;0.80;0.80;;;19.50;66.30;;;;;;5014513;28;20782;-71
2022/07/14 00:40:47;;;;;;;0.40;0.40;;;19.40;64.80;;;;;;5013379;28;20264;-70
2022/07/14 00:43:13;;;;;;;0.47;0.47;;;19.40;67.20;;;;;;5014647;28;20623;-70
2022/07/14 00:45:39;;;;;;;0.40;0.40;;;19.30;69.20;;;;;;5014595;28;20258;-71
2022/07/14 00:48:05;;;;;;;0.40;0.40;;;19.20;69.30;;;;;;5014356;28;20230;-71
2022/07/14 00:50:31;;;;;;;0.50;0.50;;;19.20;68.40;;;;;;5014631;28;20419;-70
2022/07/14 00:52:56;;;;;;;0.30;0.30;;;19.20;69.20;;;;;;5014625;28;20404;-71
2022/07/14 00:55:22;;;;;;;0.30;0.30;;;19.30;67.50;;;;;;5014508;28;20555;-71
2022/07/14 00:57:48;;;;;;;0.53;0.47;;;19.30;68.80;;;;;;5014471;28;20526;-71
2022/07/14 01:00:15;;;;;;;0.30;0.30;;;19.30;68.30;;;;;;5014538;28;20647;-70
2022/07/14 01:02:43;;;;;;;0.30;0.30;;;19.40;69.00;;;;;;5014417;28;20195;-71
2022/07/14 01:05:09;;;;;;;0.50;0.50;;;19.40;67.80;;;;;;5014395;28;20438;-70
2022/07/14 01:07:35;;;;;;;0.50;0.50;;;19.20;68.50;;;;;;5014109;28;20418;-71
2022/07/14 01:10:00;;;;;;;0.40;0.40;;;19.20;68.90;;;;;;5014093;28;20186;-71
2022/07/14 01:12:26;;;;;;;0.40;0.40;;;19.20;68.30;;;;;;5014155;28;20243;-71
2022/07/14 01:14:52;;;;;;;0.40;0.40;;;19.10;67.80;;;;;;5014087;28;20188;-71
2022/07/14 01:17:17;;;;;;;0.40;0.40;;;19.10;67.60;;;;;;5013991;28;20439;-71
2022/07/14 01:19:43;;;;;;;0.40;0.40;;;19.00;67.90;;;;;;5013984;28;20544;-70
2022/07/14 01:22:09;;;;;;;0.40;0.40;;;19.00;68.20;;;;;;5014151;28;20175;-71
2022/07/14 01:24:35;;;;;;;0.30;0.30;;;19.00;70.00;;;;;;5012666;28;20225;-72
2022/07/14 01:27:01;;;;;;;0.40;0.40;;;18.90;68.60;;;;;;5013835;28;20804;-71
2022/07/14 01:29:27;;;;;;;0.30;0.30;;;18.80;68.10;;;;;;5013351;28;20427;-72
2022/07/14 01:31:53;;;;;;;0.60;0.60;;;18.80;69.10;;;;;;5014128;28;20417;-71
2022/07/14 01:34:19;;;;;;;0.50;0.40;;;18.80;70.30;;;;;;5013999;28;20179;-71
2022/07/14 01:36:45;;;;;;;0.50;0.40;;;18.70;68.80;;;;;;5013747;28;20914;-71
2022/07/14 01:39:10;;;;;;;0.40;0.40;;;18.60;69.10;;;;;;5013647;28;20188;-70
2022/07/14 01:41:36;;;;;;;0.40;0.40;;;18.50;70.00;;;;;;5013702;28;20414;-71
2022/07/14 01:44:03;;;;;;;2.20;0.60;;;18.40;68.70;;;;;;5013711;28;20167;-71
2022/07/14 01:46:29;;;;;;;0.40;0.40;;;18.30;68.20;;;;;;5013906;28;20497;-70
2022/07/14 01:48:55;;;;;;;0.53;0.50;;;18.30;68.60;;;;;;5013649;28;20505;-71
2022/07/14 01:51:21;;;;;;;0.30;0.30;;;18.30;65.40;;;;;;5013660;28;20406;-71
2022/07/14 01:53:47;;;;;;;0.60;0.60;;;18.30;67.00;;;;;;5013816;28;20548;-71
2022/07/14 01:56:13;;;;;;;0.30;0.30;;;18.30;65.60;;;;;;5013602;28;20484;-71
2022/07/14 01:58:39;;;;;;;0.40;0.40;;;18.30;67.20;;;;;;5013436;28;20466;-72
2022/07/14 02:01:55;;;;;;;0.50;0.40;;;18.20;69.70;;;;;;5013666;28;20175;-71
2022/07/14 02:03:56;;;;;;;0.40;0.40;;;18.00;70.10;;;;;;5003063;28;20418;-71
2022/07/14 02:06:23;;;;;;;0.40;0.40;;;18.00;71.60;;;;;;5013505;28;20790;-71
2022/07/14 02:08:48;;;;;;;0.40;0.40;;;18.00;71.00;;;;;;5013242;28;20196;-70
2022/07/14 02:13:58;;;;;;;0.40;0.40;;;18.00;71.30;;;;;;5013895;28;20213;-71
2022/07/14 02:16:24;;;;;;;0.30;0.30;;;18.00;72.00;;;;;;5013464;28;20856;-70
2022/07/14 02:18:50;;;;;;;0.40;0.40;;;18.10;73.00;;;;;;5013141;28;20188;-71
2022/07/14 02:21:15;;;;;;;0.40;0.40;;;18.10;72.20;;;;;;5013364;28;20210;-71
2022/07/14 02:23:41;;;;;;;0.40;0.40;;;18.20;72.50;;;;;;5013394;28;20247;-71
2022/07/14 02:26:13;;;;;;;0.40;0.40;;;18.10;72.20;;;;;;5013340;28;20621;-71
2022/07/14 02:28:40;;;;;;;0.70;0.70;;;18.20;73.40;;;;;;5013022;28;20423;-71
2022/07/14 02:31:06;;;;;;;0.50;0.40;;;18.10;74.70;;;;;;5013236;28;20501;-71
2022/07/14 02:33:32;;;;;;;0.60;0.60;;;18.10;74.10;;;;;;5013596;28;20416;-71
2022/07/14 02:35:58;;;;;;;0.47;0.47;;;18.10;74.60;;;;;;5013352;28;20533;-71
2022/07/14 02:38:23;;;;;;;0.37;0.37;;;18.10;74.60;;;;;;5013109;28;20426;-72
2022/07/14 02:40:49;;;;;;;0.40;0.40;;;18.20;73.80;;;;;;5013509;28;20174;-70
2022/07/14 02:43:15;;;;;;;0.30;0.30;;;18.30;73.50;;;;;;5017019;28;20172;-70
2022/07/14 02:45:40;;;;;;;0.60;0.50;;;18.20;73.10;;;;;;5016912;28;20175;-70
2022/07/14 02:48:07;;;;;;;2.43;0.70;;;18.20;74.80;;;;;;5016745;28;20540;-70
2022/07/14 02:50:32;;;;;;;0.47;0.47;;;18.10;75.80;;;;;;5016923;28;20538;-71
2022/07/14 02:52:58;;;;;;;0.50;0.50;;;18.10;76.80;;;;;;5016572;28;20414;-71
2022/07/14 02:55:24;;;;;;;0.30;0.30;;;18.10;77.60;;;;;;5016550;28;20562;-71
2022/07/14 02:57:50;;;;;;;0.43;0.43;;;18.10;77.00;;;;;;5016221;28;20164;-71
2022/07/14 03:00:17;;;;;;;0.40;0.40;;;18.00;77.70;;;;;;5016453;28;20164;-71
2022/07/14 03:02:42;;;;;;;0.40;0.40;;;18.00;77.90;;;;;;5016443;28;20418;-72
2022/07/14 03:05:08;;;;;;;0.40;0.40;;;18.00;79.20;;;;;;5016475;28;20899;-72
2022/07/14 03:07:34;;;;;;;0.50;0.50;;;18.00;79.50;;;;;;5016175;28;20187;-71
2022/07/14 03:09:59;;;;;;;0.40;0.40;;;18.00;79.50;;;;;;5016172;28;20425;-71
2022/07/14 03:12:25;;;;;;;0.40;0.40;;;18.00;81.40;;;;;;5016405;28;20531;-71
2022/07/14 03:14:51;;;;;;;4.83;0.70;;;18.00;80.80;;;;;;5016137;28;20249;-70
2022/07/14 03:17:17;;;;;;;0.40;0.40;;;18.00;79.50;;;;;;5015971;28;20199;-71
2022/07/14 03:19:43;;;;;;;0.40;0.40;;;18.10;82.80;;;;;;5016112;28;20276;-71
2022/07/14 03:22:09;;;;;;;0.37;0.37;;;18.10;83.00;;;;;;5016160;28;20439;-71
2022/07/14 03:24:35;;;;;;;0.30;0.30;;;18.10;82.90;;;;;;5015855;28;20530;-72
2022/07/14 03:27:00;;;;;;;0.40;0.40;;;18.10;83.20;;;;;;5015947;28;20171;-71
2022/07/14 03:29:27;;;;;;;0.50;0.50;;;18.10;82.80;;;;;;5016081;28;20267;-70
2022/07/14 03:31:54;;;;;;;0.40;0.40;;;18.10;82.00;;;;;;5015952;28;20168;-71
2022/07/14 03:34:19;;;;;;;0.40;0.40;;;18.10;82.50;;;;;;5015998;28;20437;-70
2022/07/14 03:36:45;;;;;;;0.60;0.60;;;18.20;82.50;;;;;;5015832;28;20438;-71
2022/07/14 03:39:11;;;;;;;0.40;0.40;;;18.20;83.20;;;;;;5015610;28;20191;-71
2022/07/14 03:41:36;;;;;;;0.37;0.37;;;18.10;85.80;;;;;;5015705;28;20302;-70
2022/07/14 03:44:02;;;;;;;0.43;0.43;;;18.10;85.20;;;;;;5015712;28;20195;-71
2022/07/14 03:46:28;;;;;;;0.40;0.40;;;18.00;85.80;;;;;;5016197;28;20245;-71
2022/07/14 03:48:54;;;;;;;0.40;0.40;;;18.00;82.70;;;;;;5015408;28;20191;-71
2022/07/14 03:51:19;;;;;;;0.93;0.70;;;18.00;84.20;;;;;;5015582;28;20171;-70
2022/07/14 03:53:45;;;;;;;0.40;0.40;;;18.10;84.90;;;;;;5014991;28;20254;-71
2022/07/14 03:56:11;;;;;;;0.40;0.40;;;18.20;85.00;;;;;;5015512;28;20202;-71
2022/07/14 03:58:36;;;;;;;0.40;0.40;;;18.20;85.10;;;;;;5015126;28;20192;-71
2022/07/14 04:01:03;;;;;;;0.30;0.30;;;18.20;84.30;;;;;;5015299;28;20175;-71
2022/07/14 04:03:28;;;;;;;0.60;0.60;;;18.10;85.80;;;;;;5015342;28;20167;-71
2022/07/14 04:05:54;;;;;;;0.60;0.60;;;18.10;86.80;;;;;;5015300;28;20421;-71
2022/07/14 04:08:20;;;;;;;0.40;0.40;;;18.00;86.80;;;;;;5014888;28;20205;-71
2022/07/14 04:10:45;;;;;;;0.50;0.50;;;18.00;85.50;;;;;;5015418;28;20175;-71
2022/07/14 04:13:11;;;;;;;0.73;0.70;;;18.10;85.50;;;;;;5015237;28;20175;-71
2022/07/14 04:15:39;;;;;;;0.50;0.50;;;18.30;84.80;;;;;;5014974;28;20207;-71
2022/07/14 04:18:05;;;;;;;0.50;0.50;;;18.40;84.40;;;;;;5015032;28;20205;-70
2022/07/14 04:20:31;;;;;;;0.93;0.93;;;18.50;84.80;;;;;;5014954;28;20479;-70
2022/07/14 04:22:56;;;;;;;0.30;0.30;;;18.50;85.50;;;;;;5015030;28;20195;-71
2022/07/14 04:25:22;;;;;;;0.30;0.30;;;18.50;86.40;;;;;;5014749;28;20195;-71
2022/07/14 04:27:48;;;;;;;0.40;0.40;;;18.50;87.80;;;;;;5014712;28;20841;-71
2022/07/14 04:30:14;;;;;;;0.40;0.40;;;18.60;88.70;;;;;;5015097;28;20650;-71
2022/07/14 04:32:40;;;;;;;0.70;0.70;;;18.50;88.40;;;;;;5014921;28;20521;-71
2022/07/14 04:35:06;;;;;;;0.40;0.40;;;18.50;88.60;;;;;;5014760;28;20458;-71
2022/07/14 04:37:32;;;;;;;0.63;0.60;;;18.50;89.30;;;;;;5014803;28;20181;-72
2022/07/14 04:39:58;;;;;;;0.40;0.40;;;18.60;89.70;;;;;;5014651;28;20510;-71
2022/07/14 04:42:24;;;;;;;1.10;0.47;;;18.70;88.70;;;;;;5014843;28;20262;-70
2022/07/14 04:44:50;;;;;;;0.40;0.40;;;18.70;89.90;;;;;;5014716;28;20180;-71
2022/07/14 04:47:16;;;;;;;0.50;0.50;;;18.80;89.50;;;;;;5014524;28;20430;-70
2022/07/14 04:52:25;;;;;;;0.37;0.37;;;19.00;89.40;;;;;;5014690;28;20187;-70
2022/07/14 04:54:51;;;;;;;0.40;0.40;;;19.10;90.20;;;;;;5014489;28;20462;-71
2022/07/14 04:57:17;;;;;;;0.40;0.40;;;19.20;89.90;;;;;;5014258;28;20187;-71
2022/07/14 04:59:42;;;;;;;0.50;0.50;;;19.30;90.10;;;;;;5014343;28;20654;-71
2022/07/14 05:02:08;;;;;;;0.40;0.40;;;19.40;88.40;;;;;;5014415;28;20170;-72
2022/07/14 05:04:35;;;;;;;0.40;0.40;;;19.50;87.40;;;;;;5013601;28;20178;-72
2022/07/14 05:07:00;;;;;;;0.40;0.40;;;19.50;88.60;;;;;;5014308;28;20409;-71
2022/07/14 05:09:30;;;;;;;0.50;0.50;;;19.60;89.30;;;;;;5014061;28;20443;-71
2022/07/14 05:11:55;;;;;;;0.40;0.40;;;19.80;89.50;;;;;;5014440;28;20414;-71
2022/07/14 05:14:21;;;;;;;0.57;0.50;;;20.00;90.20;;;;;;5014186;28;20905;-70
2022/07/14 05:16:48;;;;;;;0.60;0.60;;;20.20;87.90;;;;;;5014270;28;20237;-71
2022/07/14 05:19:15;;;;;;;0.50;0.50;;;20.30;88.30;;;;;;5013716;28;20190;-71
2022/07/14 05:21:41;;;;;;;0.30;0.30;;;20.40;90.00;;;;;;5013770;28;20417;-70
2022/07/14 05:24:07;;;;;;;0.40;0.40;;;20.50;90.00;;;;;;5014001;28;20434;-71
2022/07/14 05:26:33;;;;;;;0.40;0.40;;;20.70;89.50;;;;;;5012502;28;20183;-71
2022/07/14 05:28:59;;;;;;;0.53;0.53;;;20.70;87.90;;;;;;5013675;28;20679;-71
2022/07/14 05:31:24;;;;;;;0.70;0.70;;;20.70;87.60;;;;;;5012552;28;20508;-71
2022/07/14 05:33:50;;;;;;;0.40;0.40;;;20.50;88.50;;;;;;5012015;28;20224;-71
2022/07/14 05:36:16;;;;;;;0.50;0.50;;;20.50;88.20;;;;;;5012683;28;20619;-71
2022/07/14 05:38:42;;;;;;;0.43;0.43;;;20.50;88.10;;;;;;5011231;28;20193;-72
2022/07/14 05:41:08;;;;;;;0.30;0.30;;;20.50;89.80;;;;;;5012446;28;20496;-73
2022/07/14 05:43:33;;;;;;;0.50;0.50;;;20.60;89.80;;;;;;5011519;28;20214;-73
2022/07/14 05:46:04;;;;;;;0.77;0.77;;;21.00;90.00;;;;;;5012378;28;20231;-71
2022/07/14 05:48:29;;;;;;;0.47;0.47;;;21.70;85.90;;;;;;5011678;28;20225;-72
2022/07/14 05:51:06;;;;;;;0.40;0.40;;;22.40;86.00;;;;;;5009862;28;20488;-71
2022/07/14 05:53:32;;;;;;;0.30;0.30;;;23.00;84.70;;;;;;5013090;28;20174;-72
2022/07/14 05:55:58;;;;;;;0.40;0.40;;;23.60;82.00;;;;;;5013624;28;20790;-72
2022/07/14 05:58:24;;;;;;;0.73;0.73;;;24.40;76.90;;;;;;5012970;28;20459;-72
2022/07/14 06:00:49;;;;;;;0.50;0.40;;;25.40;74.20;;;;;;5013878;28;20708;-71
2022/07/14 06:03:15;;;;;;;0.70;0.70;;;25.70;69.50;;;;;;5013631;28;20183;-72
2022/07/14 06:05:41;;;;;;;0.50;0.50;;;25.50;66.00;;;;;;5013800;28;20182;-73
2022/07/14 06:08:07;;;;;;;0.30;0.30;;;25.20;69.50;;;;;;5013320;28;20187;-72
2022/07/14 06:10:33;;;;;;;0.70;0.57;;;24.90;69.40;;;;;;5013746;28;20435;-71
2022/07/14 06:12:58;;;;;;;0.40;0.40;;;24.70;69.50;;;;;;5013593;28;20381;-71
2022/07/14 06:15:24;;;;;;;0.60;0.60;;;24.50;68.40;;;;;;5013519;28;20684;-71
2022/07/14 06:17:50;;;;;;;0.40;0.40;;;24.40;70.30;;;;;;5017094;28;20617;-71
2022/07/14 06:20:15;;;;;;;0.30;0.30;;;24.70;71.30;;;;;;5017344;28;20172;-72
2022/07/14 06:22:41;;;;;;;0.40;0.40;;;25.30;70.70;;;;;;5016065;28;20175;-71
2022/07/14 06:25:07;;;;;;;0.60;0.50;;;26.80;66.60;;;;;;5017206;28;20202;-72
2022/07/14 06:27:33;;;;;;;0.43;0.43;;;28.70;62.30;;;;;;5017053;28;20218;-72
2022/07/14 06:30:04;;;;;;;0.40;0.40;;;30.40;58.60;;;;;;5017070;28;20996;-72
2022/07/14 06:32:30;;;;;;;0.60;0.60;;;32.00;54.60;;;;;;5017408;28;20194;-72
2022/07/14 06:34:56;;;;;;;0.40;0.40;;;33.10;51.60;;;;;;5017114;28;20928;-72
2022/07/14 06:37:21;;;;;;;0.53;0.40;;;33.40;49.80;;;;;;5017105;28;20250;-72
2022/07/14 06:39:47;;;;;;;0.60;0.50;;;33.30;48.10;;;;;;5017201;28;20238;-72
2022/07/14 06:42:13;;;;;;;0.40;0.40;;;32.90;45.90;;;;;;5017055;28;20222;-72
2022/07/14 06:44:39;;;;;;;0.40;0.40;;;32.90;46.20;;;;;;5017046;28;20175;-72
2022/07/14 06:47:05;;;;;;;0.60;0.60;;;32.90;46.80;;;;;;5016828;28;20434;-72
2022/07/14 06:49:31;;;;;;;0.50;0.50;;;32.50;44.10;;;;;;5016771;28;20461;-73
2022/07/14 06:51:57;;;;;;;0.40;0.40;;;32.40;46.60;;;;;;5016818;28;20168;-73
2022/07/14 06:54:22;;;;;;;0.40;0.40;;;32.40;46.60;;;;;;5016772;28;20172;-73
2022/07/14 06:56:48;;;;;;;0.47;0.47;;;32.60;46.80;;;;;;5016686;28;20218;-73
2022/07/14 06:59:13;;;;;;;0.40;0.40;;;33.00;46.60;;;;;;5016434;28;20266;-73
2022/07/14 07:01:39;;;;;;;0.40;0.40;;;33.20;44.80;;;;;;5016762;28;20635;-72
2022/07/14 07:04:06;;;;;;;0.50;0.50;;;33.20;44.20;;;;;;5016661;28;20172;-73
2022/07/14 07:06:44;;;;;;;0.53;0.53;;;34.00;44.70;;;;;;5016503;28;20249;-72
2022/07/14 07:09:14;;;;;;;0.60;0.53;;;35.40;43.50;;;;;;5016328;28;20972;-73
2022/07/14 07:11:43;;;;;;;0.67;0.50;;;37.10;40.20;;;;;;5016268;28;20907;-73
2022/07/14 07:14:09;;;;;;;0.60;0.40;;;38.10;38.00;;;;;;5016012;28;20442;-74
2022/07/14 07:16:35;;;;;;;0.50;0.40;;;38.40;37.10;;;;;;5015397;28;20493;-73
2022/07/14 07:19:01;;;;;;;1.90;0.50;;;38.40;36.40;;;;;;5016371;28;20237;-73
2022/07/14 07:21:27;;;;;;;0.60;0.50;;;38.40;36.90;;;;;;5016277;28;20179;-73
2022/07/14 07:23:54;;;;;;;0.47;0.47;;;38.20;37.30;;;;;;5016143;28;20421;-72
2022/07/14 07:26:22;;;;;;;0.50;0.50;;;37.70;37.00;;;;;;5015709;28;20182;-73
2022/07/14 07:28:49;;;;;;;0.50;0.50;;;37.50;38.50;;;;;;5013645;28;20469;-73
2022/07/14 07:31:15;;;;;;;0.50;0.50;;;37.40;38.20;;;;;;5015809;28;20414;-73
2022/07/14 07:33:40;;;;;;;0.50;0.40;;;37.20;38.30;;;;;;5015795;28;20179;-72
2022/07/14 07:36:06;;;;;;;0.50;0.50;;;37.00;38.70;;;;;;5016091;28;20210;-72
2022/07/14 07:38:32;;;;;;;0.70;0.70;;;37.00;38.90;;;;;;5015205;28;20218;-73
2022/07/14 07:41:00;;;;;;;0.50;0.47;;;37.50;35.50;;;;;;5016334;28;20202;-73
2022/07/14 07:43:26;;;;;;;0.40;0.40;;;38.30;34.40;;;;;;5016359;28;20214;-73
2022/07/14 07:45:52;;;;;;;0.70;0.53;;;39.10;34.60;;;;;;5015328;28;20899;-71
2022/07/14 07:48:18;;;;;;;0.60;0.60;;;39.80;31.40;;;;;;5014055;28;20541;-69
2022/07/14 07:50:45;;;;;;;0.90;0.80;;;40.20;31.40;;;;;;5016024;28;20236;-71
2022/07/14 07:53:12;;;;;;;0.47;0.47;;;41.00;32.10;;;;;;5015515;28;20183;-72
2022/07/14 07:55:38;;;;;;;0.40;0.40;;;41.80;31.60;;;;;;5013422;28;20461;-72
2022/07/14 07:58:05;;;;;;;0.50;0.43;;;42.20;30.00;;;;;;5015248;28;20434;-72
2022/07/14 08:00:31;;;;;;;0.40;0.40;;;42.70;29.60;;;;;;5014799;28;20446;-72
2022/07/14 08:02:57;;;;;;;0.50;0.40;;;43.30;29.80;;;;;;5014092;28;20449;-72
2022/07/14 08:05:25;;;;;;;0.77;0.50;;;43.70;28.00;;;;;;5014448;28;20171;-72
2022/07/14 08:07:52;;;;;;;0.90;0.40;;;44.30;26.50;;;;;;5012779;28;20429;-71
2022/07/14 08:10:18;;;;;;;0.40;0.33;;;44.80;26.40;;;;;;5013438;28;20929;-72
2022/07/14 08:12:44;;;;;;;0.90;0.60;;;44.60;24.80;;;;;;5015122;28;20410;-72
2022/07/14 08:15:10;;;;;;;0.43;0.40;;;45.00;26.00;;;;;;5013705;28;20453;-72
2022/07/14 08:17:36;;;;;;;0.40;0.40;;;45.00;25.10;;;;;;5015416;28;20168;-71
2022/07/14 08:20:04;;;;;;;0.50;0.47;;;44.10;23.50;;;;;;5013679;28;20430;-72
2022/07/14 08:22:30;;;;;;;0.40;0.30;;;42.80;24.00;;;;;;5013454;28;20526;-71
2022/07/14 08:24:56;;;;;;;0.60;0.50;;;42.50;24.60;;;;;;5014735;28;20422;-71
2022/07/14 08:27:23;;;;;;;0.40;0.40;;;42.50;25.40;;;;;;5014393;28;20172;-71
2022/07/14 08:29:50;;;;;;;0.40;0.40;;;42.70;25.00;;;;;;5013881;28;20791;-71
2022/07/14 08:32:17;;;;;;;0.40;0.40;;;42.70;24.30;;;;;;5014304;28;20407;-72
2022/07/14 08:34:43;;;;;;;0.40;0.40;;;42.90;23.10;;;;;;5014111;28;20438;-71
2022/07/14 08:37:09;;;;;;;0.30;0.30;;;43.10;24.20;;;;;;5014458;28;20429;-71
2022/07/14 08:39:34;;;;;;;0.43;0.43;;;43.20;23.00;;;;;;5014521;28;20930;-72
2022/07/14 08:42:01;;;;;;;0.40;0.40;;;42.60;24.30;;;;;;5014829;28;20171;-72
2022/07/14 08:44:28;;;;;;;0.50;0.40;;;42.30;25.00;;;;;;5014281;28;20164;-71
2022/07/14 08:46:55;;;;;;;0.40;0.40;;;42.90;23.60;;;;;;5014545;28;20411;-72
2022/07/14 08:49:20;;;;;;;0.40;0.40;;;42.70;24.70;;;;;;5014505;28;20480;-71
2022/07/14 08:51:49;;;;;;;0.40;0.40;;;42.50;23.60;;;;;;5014744;28;20406;-71
2022/07/14 08:54:16;;;;;;;0.40;0.40;;;42.20;25.30;;;;;;5014665;28;20202;-70
2022/07/14 08:56:41;;;;;;;0.50;0.50;;;41.60;24.20;;;;;;5014480;28;20446;-71
2022/07/14 08:59:08;;;;;;;0.50;0.40;;;41.20;25.30;;;;;;5013316;28;20427;-72
2022/07/14 09:01:34;;;;;;;0.50;0.40;;;41.40;23.90;;;;;;5013721;28;20226;-71
2022/07/14 09:04:01;;;;;;;0.40;0.40;;;41.40;25.70;;;;;;5014104;28;20459;-71
2022/07/14 09:06:52;;;;;;;0.40;0.40;;;41.40;24.00;;;;;;5013045;28;20163;-72
2022/07/14 09:09:24;;;;;;;0.50;0.50;;;41.80;23.90;;;;;;5014256;28;20906;-71
2022/07/14 09:11:56;;;;;;;0.50;0.50;;;41.90;24.60;;;;;;5012764;28;20417;-72
2022/07/14 09:14:22;;;;;;;0.50;0.40;;;41.50;26.50;;;;;;5013367;28;20914;-72
2022/07/14 09:16:48;;;;;;;0.50;0.40;;;41.70;24.40;;;;;;5014616;28;20910;-72
2022/07/14 09:19:15;;;;;;;0.40;0.40;;;41.80;26.00;;;;;;5010995;28;20476;-72
2022/07/14 09:21:51;;;;;;;0.80;0.40;;;42.00;25.50;;;;;;5014746;28;20445;-71
2022/07/14 09:24:17;;;;;;;0.40;0.40;;;42.20;24.30;;;;;;5013932;28;20433;-70
2022/07/14 09:26:48;;;;;;;0.40;0.40;;;42.50;24.10;;;;;;5012498;28;20807;-72
2022/07/14 09:29:24;;;;;;;0.57;0.40;;;43.00;25.10;;;;;;5014194;28;20195;-71
2022/07/14 09:31:50;;;;;;;0.50;0.50;;;42.90;23.70;;;;;;5014153;28;20437;-72
2022/07/14 09:34:33;;;;;;;0.40;0.40;;;41.90;25.70;;;;;;5012912;28;20973;-71
2022/07/14 09:37:12;;;;;;;0.40;0.40;;;42.30;25.10;;;;;;5013938;28;20297;-71
2022/07/14 09:39:57;;;;;;;1.80;0.60;;;42.70;25.60;;;;;;5014128;28;20517;-71
2022/07/14 09:42:48;;;;;;;0.50;0.40;;;43.10;25.50;;;;;;5014438;28;20402;-71
2022/07/14 09:45:14;;;;;;;1.07;0.70;;;43.30;24.90;;;;;;5013975;28;20402;-72
2022/07/14 09:47:53;;;;;;;0.47;0.47;;;43.40;25.80;;;;;;5013671;28;20482;-71
2022/07/14 09:50:47;;;;;;;0.40;0.40;;;43.00;25.60;;;;;;5013820;28;20390;-71
2022/07/14 09:53:13;;;;;;;0.50;0.40;;;41.10;26.00;;;;;;5013570;28;20472;-71
2022/07/14 09:55:42;;;;;;;0.60;0.60;;;40.10;26.40;;;;;;5010835;28;20458;-71
2022/07/14 09:58:08;;;;;;;0.60;0.60;;;40.50;27.70;;;;;;5011691;28;20245;-70
2022/07/14 10:00:35;;;;;;;0.50;0.50;;;40.90;25.60;;;;;;5012606;28;20418;-72
2022/07/14 10:03:03;;;;;;;0.70;0.70;;;41.00;25.00;;;;;;5012698;28;20413;-71
2022/07/14 10:05:31;;;;;;;1.07;0.60;;;40.80;26.50;;;;;;5012839;28;20489;-71
2022/07/14 10:07:58;;;;;;;0.40;0.30;;;40.30;26.50;;;;;;5012974;28;20407;-71
2022/07/14 10:10:24;;;;;;;0.40;0.40;;;39.70;26.20;;;;;;5013465;28;20409;-71
2022/07/14 10:12:51;;;;;;;0.50;0.40;;;39.80;29.10;;;;;;5012138;28;20768;-71
2022/07/14 10:15:17;;;;;;;0.63;0.57;;;39.70;27.30;;;;;;5013524;28;20446;-70
2022/07/14 10:17:43;;;;;;;0.50;0.50;;;39.70;27.90;;;;;;5013140;28;20945;-71
2022/07/14 10:20:11;;;;;;;0.60;0.60;;;40.00;27.40;;;;;;5013573;28;20284;-70
2022/07/14 10:22:38;;;;;;;0.60;0.57;;;40.00;27.60;;;;;;5011422;28;20168;-70
2022/07/14 10:25:06;;;;;;;1.00;0.90;;;39.50;26.60;;;;;;5012544;28;20496;-71
2022/07/14 10:27:32;;;;;;;0.70;0.60;;;39.20;28.20;;;;;;5012520;28;20434;-70
2022/07/14 10:29:58;;;;;;;0.47;0.47;;;38.60;27.40;;;;;;5012505;28;20465;-70
2022/07/14 10:32:46;;;;;;;0.50;0.50;;;38.70;28.40;;;;;;5012810;28;20464;-71
2022/07/14 10:35:17;;;;;;;0.60;0.60;;;38.50;28.90;;;;;;5013423;28;20442;-70
2022/07/14 10:38:20;;;;;;;0.50;0.43;;;38.50;27.30;;;;;;5013027;28;20422;-71
2022/07/14 10:41:08;;;;;;;0.50;0.40;;;38.00;29.40;;;;;;5013116;28;20509;-70
2022/07/14 10:43:50;;;;;;;0.50;0.50;;;38.10;28.40;;;;;;5011941;28;20425;-73
2022/07/14 10:46:33;;;;;;;0.60;0.60;;;38.20;30.00;;;;;;5013390;28;20398;-73
2022/07/14 10:48:59;;;;;;;0.50;0.50;;;37.60;28.40;;;;;;5013192;28;20426;-73
2022/07/14 10:51:29;;;;;;;0.60;0.60;;;37.50;28.90;;;;;;5013118;28;20914;-73
2022/07/14 10:54:07;;;;;;;0.60;0.60;;;37.40;28.50;;;;;;5013207;28;20168;-73
2022/07/14 10:56:33;;;;;;;0.60;0.60;;;37.40;30.60;;;;;;5013318;28;20453;-73
2022/07/14 10:59:26;;;;;;;0.50;0.50;;;37.10;29.60;;;;;;5012963;28;20517;-73
2022/07/14 11:02:14;;;;;;;0.50;0.50;;;36.70;29.20;;;;;;5013230;28;20465;-73
2022/07/14 11:05:03;;;;;;;0.50;0.50;;;36.30;30.40;;;;;;5016402;28;20398;-73
2022/07/14 11:07:46;;;;;;;0.50;0.50;;;35.70;35.00;;;;;;5016549;28;20406;-73
2022/07/14 11:10:18;;;;;;;0.50;0.50;;;35.00;33.10;;;;;;5015221;28;20434;-73
2022/07/14 11:13:02;;;;;;;0.90;0.70;;;34.40;33.70;;;;;;5016420;28;20476;-72
2022/07/14 11:15:55;;;;;;;0.60;0.40;;;33.90;32.70;;;;;;5015172;28;20456;-73
2022/07/14 11:18:21;;;;;;;1.37;0.70;;;33.80;37.00;;;;;;5016169;28;20433;-73
2022/07/14 11:21:05;;;;;;;0.63;0.63;;;33.50;35.80;;;;;;5016276;28;20391;-72
2022/07/14 11:23:36;;;;;;;0.70;0.57;;;33.60;35.70;;;;;;5016500;28;20237;-72
2022/07/14 11:26:06;;;;;;;3.10;0.97;;;33.60;34.60;;;;;;5016184;28;20457;-72
2022/07/14 11:28:48;;;;;;;0.40;0.40;;;33.60;34.90;;;;;;5015929;28;20815;-72
2022/07/14 11:31:22;;;;;;;0.40;0.40;;;33.60;36.80;;;;;;5016154;28;20500;-72
2022/07/14 11:36:37;;;;;;;0.73;0.73;;;33.40;35.00;;;;;;5016177;28;20473;-72
2022/07/14 11:39:15;;;;;;;0.70;0.70;;;33.30;36.80;;;;;;5014363;28;20480;-73
2022/07/14 11:41:44;;;;;;;0.60;0.57;;;33.20;35.70;;;;;;5014589;28;20421;-73
2022/07/14 11:44:41;;;;;;;0.40;0.40;;;33.20;36.10;;;;;;5015817;28;20430;-72
2022/07/14 11:47:29;;;;;;;0.60;0.60;;;33.20;37.70;;;;;;4982546;28;20450;-73
2022/07/14 11:50:04;;;;;;;0.67;0.60;;;32.90;37.80;;;;;;5015402;28;20430;-73
2022/07/14 11:52:32;;;;;;;0.40;0.40;;;32.90;36.40;;;;;;5014563;28;20410;-72
2022/07/14 11:55:00;;;;;;;1.23;0.93;;;32.80;36.60;;;;;;5014360;28;20450;-72
2022/07/14 11:57:27;;;;;;;0.70;0.63;;;32.60;36.90;;;;;;5014351;28;20772;-72
2022/07/14 11:59:53;;;;;;;0.90;0.90;;;32.70;36.40;;;;;;5013496;28;20447;-74
2022/07/14 12:02:21;;;;;;;0.60;0.60;;;32.50;36.60;;;;;;5013873;28;20892;-73
2022/07/14 12:05:08;;;;;;;0.57;0.57;;;32.30;36.90;;;;;;5013159;28;20788;-72
2022/07/14 12:07:51;;;;;;;0.47;0.40;;;32.00;38.50;;;;;;5014742;28;20421;-73
2022/07/14 12:10:37;;;;;;;0.80;0.80;;;31.80;36.50;;;;;;5015284;28;20398;-72
2022/07/14 12:13:03;;;;;;;0.50;0.40;;;31.80;36.60;;;;;;5015362;28;20406;-73
2022/07/14 12:15:30;;;;;;;0.80;0.60;;;31.90;35.30;;;;;;5013494;28;20966;-73
2022/07/14 12:17:56;;;;;;;0.50;0.50;;;31.90;35.10;;;;;;5015023;28;20167;-72
2022/07/14 12:20:22;;;;;;;0.60;0.50;;;32.00;35.90;;;;;;5015161;28;20540;-73
2022/07/14 12:22:56;;;;;;;0.70;0.70;;;32.10;36.40;;;;;;5015252;28;20887;-73
2022/07/14 12:25:31;;;;;;;0.40;0.40;;;32.20;38.30;;;;;;5015159;28;20434;-72
2022/07/14 12:27:58;;;;;;;0.57;0.57;;;32.30;36.10;;;;;;5013511;28;20957;-72
2022/07/14 12:30:24;;;;;;;0.40;0.40;;;32.10;35.00;;;;;;5014964;28;20422;-72
2022/07/14 12:32:54;;;;;;;0.67;0.60;;;31.80;35.80;;;;;;5015044;28;20414;-73
2022/07/14 12:35:21;;;;;;;0.73;0.43;;;31.70;36.00;;;;;;5014990;28;20447;-72
2022/07/14 12:37:51;;;;;;;0.47;0.47;;;31.50;33.00;;;;;;5014609;28;20403;-73
2022/07/14 12:40:18;;;;;;;0.57;0.50;;;31.40;31.60;;;;;;5014831;28;20400;-72
2022/07/14 12:42:45;;;;;;;0.50;0.50;;;31.50;33.10;;;;;;5014833;28;20770;-72
2022/07/14 12:45:11;;;;;;;1.00;0.90;;;31.40;31.30;;;;;;5014412;28;20946;-72
2022/07/14 12:47:51;;;;;;;0.73;0.60;;;31.50;34.90;;;;;;5014543;28;20493;-71
2022/07/14 12:50:24;;;;;;;0.87;0.50;;;31.50;33.90;;;;;;5014804;28;20537;-72
2022/07/14 12:52:55;;;;;;;0.40;0.40;;;31.60;32.50;;;;;;5014237;28;20488;-73
2022/07/14 12:55:46;;;;;;;0.43;0.43;;;31.60;32.20;;;;;;5014338;28;20453;-72
2022/07/14 12:58:13;;;;;;;0.50;0.50;;;31.60;30.20;;;;;;5014523;28;20422;-73
2022/07/14 13:00:44;;;;;;;0.40;0.40;;;31.40;30.40;;;;;;5014912;28;20409;-72
2022/07/14 13:03:17;;;;;;;0.40;0.40;;;31.50;31.60;;;;;;5014764;28;20759;-73